Apalachin, New York
Current Conditions -  °F | °C
As of 1:53 AM on Friday 31 Oct 2014 (Local Time) from KBGM Reporting Station
Broken Clouds Broken Clouds  
Wind Chill: 36°   Ceiling: 3200
Heat Index: 36°   Visibility: 10mi
Dew Point: 30°   Wind: 0mph
Humidity: 79%   Direction: NA
Pressure: 30"   Gusts: NA
Location:  42.07°N, 76.15°W
Report Text: KBGM 310553Z AUTO 00000KT 10SM BKN032 02/M01 A3000 RMK AO2 SLP168 T00221011 10050 20017 56004
Loading
Personal Weather Stations






























Interactive Weather Map New forecast layout! Learn more

10-Day Weather Forecast

Advertisements
Track Severe Weather on mobile